CheckWX is a tool to help pilots better visualize weather data.  It is not intended as a substitute for an official pre-flight weather briefing.

01:16:28 UTC

CYHI METAR
Ulukhaktok Holman Airport
Ulukhaktok, Canada
Current

1 hour ago

CYHI 240000Z 36006KT 15SM SKC M30/M33 A3051 RMK SLP338
Observed
Feb-24 @ 00:00 UTC
Wind
  • 360° at 6 KTS
Visibility
15 SM
Flight Rules
VFR
Cloud Levels
  • Clear skies
Temperature
-30°C / -22°F
Dewpoint
-33°C / -27°F
Humidity
75%
Altimeter
30.51" Hg
Pressure
1033.8 hPa
Previous

2 hours ago

CYHI 232300Z 35006KT 330V030 15SM IC FEW100 FEW140 FEW190 M28/M31 A3051 RMK AC1AS1AS1 AC TR AS TR AS TR SLP338
Observed
Feb-23 @ 23:00 UTC
Wind
  • 350° at 6 KTS
Visibility
15 SM
Flight Rules
VFR
Conditions
Ice crystals
Cloud Levels
  • Few at 10,000' AGL
  • Few at 14,000' AGL
  • Few at 19,000' AGL
Temperature
-28°C / -18°F
Dewpoint
-31°C / -24°F
Humidity
75%
Altimeter
30.51" Hg
Pressure
1033.8 hPa
Previous

3 hours ago

CYHI 232200Z VRB02KT 15SM IC FEW100 FEW140 FEW190 M25/M29 A3053 RMK AC1AS1AC1 AC TR AS TR AC TR SLP345
Observed
Feb-23 @ 22:00 UTC
Wind
  • Variable at 2 KTS
Visibility
15 SM
Flight Rules
VFR
Conditions
Ice crystals
Cloud Levels
  • Few at 10,000' AGL
  • Few at 14,000' AGL
  • Few at 19,000' AGL
Temperature
-25°C / -13°F
Dewpoint
-29°C / -20°F
Humidity
69%
Altimeter
30.53" Hg
Pressure
1034.5 hPa